Cocos, Brazil
Current Conditions -  °F | °C
As of 5:00 AM on Friday 24 Oct 2014 (Local Time) from SBMK Reporting Station
Clear Clear  
Wind Chill: 66°   Ceiling: Unl
Heat Index: 66°   Visibility: 6mi
Dew Point: 57°   Wind: 5mph
Humidity: 73%   Direction: 70°ENE
Pressure: 30.03"   Gusts: NA
Location:  14.18°S, 44.53°W
Report Text: SBMK 240800Z 07004KT CAVOK 19/14 Q1017
Loading
Personal Weather Stations






























Interactive Weather Map
Tropical Storm Tracking
New forecast layout! Learn more

10-Day Weather Forecast

Advertisements
Track Severe Weather on mobile